Lemberg, Canada
Current Conditions -  °F | °C
As of 9:00 PM on Wednesday 22 Oct 2014 (Local Time) from CYQV Reporting Station
Overcast Overcast  
Wind Chill: 50°   Ceiling: 5000
Heat Index: 50°   Visibility: 9mi
Dew Point: 45°   Wind: 8mph
Humidity: 82%   Direction: 260°W
Pressure: 29.73"   Gusts: NA
Location:  50.73°N, 103.2°W
Report Text: CYQV 230300Z AUTO 26007KT 9SM FEW019 SCT041 BKN050 OVC070 10/07 A2973 RMK SLP079
Loading
Personal Weather Stations






























Interactive Weather Map
Tropical Storm Tracking
New forecast layout! Learn more

10-Day Weather Forecast

Advertisements
Track Severe Weather on mobile